sensor_id;sensor_type;location;lat;lon;timestamp;P1;durP1;ratioP1;P2;durP2;ratioP2
1877;SDS011;939;51.426;6.972;2023-05-07T03:27:23;16.63;;;6.60;;
1877;SDS011;939;51.426;6.972;2023-05-07T03:29:50;8.40;;;6.70;;
1877;SDS011;939;51.426;6.972;2023-05-07T03:32:17;11.53;;;7.30;;
1877;SDS011;939;51.426;6.972;2023-05-07T03:34:44;9.20;;;7.53;;
1877;SDS011;939;51.426;6.972;2023-05-07T03:37:11;9.20;;;7.43;;
1877;SDS011;939;51.426;6.972;2023-05-07T03:39:38;10.53;;;7.00;;
1877;SDS011;939;51.426;6.972;2023-05-07T03:42:06;11.70;;;8.10;;
1877;SDS011;939;51.426;6.972;2023-05-07T03:44:33;10.63;;;7.30;;
1877;SDS011;939;51.426;6.972;2023-05-07T03:47:01;10.50;;;6.77;;
1877;SDS011;939;51.426;6.972;2023-05-07T03:49:28;11.73;;;7.93;;
1877;SDS011;939;51.426;6.972;2023-05-07T03:51:55;9.43;;;6.23;;
1877;SDS011;939;51.426;6.972;2023-05-07T03:54:22;8.90;;;6.77;;
1877;SDS011;939;51.426;6.972;2023-05-07T03:56:51;8.13;;;6.20;;
1877;SDS011;939;51.426;6.972;2023-05-07T03:59:19;12.83;;;6.57;;
1877;SDS011;939;51.426;6.972;2023-05-07T04:01:46;6.53;;;5.53;;
1877;SDS011;939;51.426;6.972;2023-05-07T04:04:13;9.10;;;6.83;;
1877;SDS011;939;51.426;6.972;2023-05-07T04:06:40;13.93;;;6.23;;
1877;SDS011;939;51.426;6.972;2023-05-07T04:09:07;11.17;;;6.60;;
1877;SDS011;939;51.426;6.972;2023-05-07T04:11:35;7.00;;;6.17;;
1877;SDS011;939;51.426;6.972;2023-05-07T04:14:02;10.97;;;7.30;;
1877;SDS011;939;51.426;6.972;2023-05-07T04:16:30;15.37;;;7.50;;
1877;SDS011;939;51.426;6.972;2023-05-07T04:18:57;8.10;;;6.13;;
1877;SDS011;939;51.426;6.972;2023-05-07T04:21:24;9.40;;;6.27;;
1877;SDS011;939;51.426;6.972;2023-05-07T04:23:51;8.53;;;6.23;;
1877;SDS011;939;51.426;6.972;2023-05-07T04:26:18;7.57;;;5.07;;
1877;SDS011;939;51.426;6.972;2023-05-07T04:28:46;7.30;;;5.53;;
1877;SDS011;939;51.426;6.972;2023-05-07T04:31:13;6.80;;;5.77;;
1877;SDS011;939;51.426;6.972;2023-05-07T04:33:41;10.03;;;7.30;;
1877;SDS011;939;51.426;6.972;2023-05-07T04:36:08;9.23;;;6.30;;
1877;SDS011;939;51.426;6.972;2023-05-07T04:38:35;5.10;;;4.60;;
1877;SDS011;939;51.426;6.972;2023-05-07T04:41:04;7.70;;;4.80;;
1877;SDS011;939;51.426;6.972;2023-05-07T04:43:31;6.47;;;4.87;;
1877;SDS011;939;51.426;6.972;2023-05-07T04:45:59;10.23;;;4.90;;
1877;SDS011;939;51.426;6.972;2023-05-07T04:48:26;4.87;;;4.37;;
1877;SDS011;939;51.426;6.972;2023-05-07T04:50:55;6.80;;;5.43;;
1877;SDS011;939;51.426;6.972;2023-05-07T04:53:22;7.70;;;6.13;;
1877;SDS011;939;51.426;6.972;2023-05-07T04:55:49;4.97;;;4.47;;
1877;SDS011;939;51.426;6.972;2023-05-07T04:58:21;5.30;;;4.07;;
1877;SDS011;939;51.426;6.972;2023-05-07T05:00:48;7.00;;;4.53;;
1877;SDS011;939;51.426;6.972;2023-05-07T05:03:15;6.03;;;4.30;;
1877;SDS011;939;51.426;6.972;2023-05-07T05:05:44;9.03;;;5.33;;
1877;SDS011;939;51.426;6.972;2023-05-07T05:08:12;8.60;;;6.40;;
1877;SDS011;939;51.426;6.972;2023-05-07T05:10:39;9.47;;;6.67;;
1877;SDS011;939;51.426;6.972;2023-05-07T05:13:08;11.97;;;8.23;;
1877;SDS011;939;51.426;6.972;2023-05-07T05:15:39;12.63;;;6.93;;
1877;SDS011;939;51.426;6.972;2023-05-07T05:18:06;12.90;;;8.20;;
1877;SDS011;939;51.426;6.972;2023-05-07T05:20:33;10.80;;;7.17;;
1877;SDS011;939;51.426;6.972;2023-05-07T05:23:00;10.00;;;7.23;;
1877;SDS011;939;51.426;6.972;2023-05-07T05:25:28;10.03;;;6.30;;
1877;SDS011;939;51.426;6.972;2023-05-07T05:27:55;10.60;;;6.20;;
1877;SDS011;939;51.426;6.972;2023-05-07T05:30:22;8.17;;;5.70;;
1877;SDS011;939;51.426;6.972;2023-05-07T05:32:49;7.33;;;5.10;;
1877;SDS011;939;51.426;6.972;2023-05-07T05:35:16;10.23;;;5.57;;
1877;SDS011;939;51.426;6.972;2023-05-07T05:37:43;6.37;;;5.30;;
1877;SDS011;939;51.426;6.972;2023-05-07T05:40:10;5.23;;;4.73;;
1877;SDS011;939;51.426;6.972;2023-05-07T05:42:44;6.47;;;4.73;;
1877;SDS011;939;51.426;6.972;2023-05-07T05:45:12;5.20;;;4.10;;
1877;SDS011;939;51.426;6.972;2023-05-07T05:47:38;4.20;;;3.50;;
1877;SDS011;939;51.426;6.972;2023-05-07T05:50:06;13.83;;;6.83;;
1877;SDS011;939;51.426;6.972;2023-05-07T05:52:34;6.80;;;5.40;;
1877;SDS011;939;51.426;6.972;2023-05-07T05:55:01;4.90;;;4.03;;
1877;SDS011;939;51.426;6.972;2023-05-07T05:57:27;5.50;;;4.17;;
1877;SDS011;939;51.426;6.972;2023-05-07T05:59:56;5.20;;;4.10;;
1877;SDS011;939;51.426;6.972;2023-05-07T06:02:23;5.60;;;4.37;;
1877;SDS011;939;51.426;6.972;2023-05-07T06:04:50;6.97;;;4.63;;
1877;SDS011;939;51.426;6.972;2023-05-07T06:07:17;8.87;;;5.53;;
1877;SDS011;939;51.426;6.972;2023-05-07T06:09:48;4.93;;;4.43;;
1877;SDS011;939;51.426;6.972;2023-05-07T06:12:15;5.03;;;3.50;;
1877;SDS011;939;51.426;6.972;2023-05-07T06:14:42;4.77;;;3.37;;
1877;SDS011;939;51.426;6.972;2023-05-07T06:17:11;4.70;;;3.97;;
1877;SDS011;939;51.426;6.972;2023-05-07T06:19:38;7.00;;;4.77;;
1877;SDS011;939;51.426;6.972;2023-05-07T06:22:08;4.60;;;3.40;;
1877;SDS011;939;51.426;6.972;2023-05-07T06:24:35;5.43;;;3.47;;
1877;SDS011;939;51.426;6.972;2023-05-07T06:27:02;4.00;;;3.47;;
1877;SDS011;939;51.426;6.972;2023-05-07T06:29:29;5.40;;;4.10;;
1877;SDS011;939;51.426;6.972;2023-05-07T06:32:02;3.47;;;3.17;;
1877;SDS011;939;51.426;6.972;2023-05-07T06:34:34;6.53;;;4.87;;
1877;SDS011;939;51.426;6.972;2023-05-07T06:37:02;6.67;;;4.17;;
1877;SDS011;939;51.426;6.972;2023-05-07T06:39:29;7.63;;;4.10;;
1877;SDS011;939;51.426;6.972;2023-05-07T06:41:56;3.60;;;3.00;;
1877;SDS011;939;51.426;6.972;2023-05-07T06:44:23;9.53;;;4.13;;
1877;SDS011;939;51.426;6.972;2023-05-07T06:46:50;4.57;;;3.40;;
1877;SDS011;939;51.426;6.972;2023-05-07T06:49:17;6.43;;;3.13;;
1877;SDS011;939;51.426;6.972;2023-05-07T06:51:45;5.80;;;3.10;;
1877;SDS011;939;51.426;6.972;2023-05-07T06:54:12;9.23;;;3.90;;
1877;SDS011;939;51.426;6.972;2023-05-07T06:56:39;4.50;;;3.23;;
1877;SDS011;939;51.426;6.972;2023-05-07T06:59:09;4.13;;;2.80;;
1877;SDS011;939;51.426;6.972;2023-05-07T07:01:35;2.73;;;2.03;;
1877;SDS011;939;51.426;6.972;2023-05-07T07:04:05;2.20;;;1.77;;
1877;SDS011;939;51.426;6.972;2023-05-07T07:06:32;3.10;;;2.30;;
1877;SDS011;939;51.426;6.972;2023-05-07T07:09:01;3.43;;;3.07;;
1877;SDS011;939;51.426;6.972;2023-05-07T07:11:28;2.30;;;2.07;;
1877;SDS011;939;51.426;6.972;2023-05-07T07:13:58;5.33;;;3.10;;
1877;SDS011;939;51.426;6.972;2023-05-07T07:16:25;5.07;;;2.73;;
1877;SDS011;939;51.426;6.972;2023-05-07T07:18:52;7.37;;;3.33;;
1877;SDS011;939;51.426;6.972;2023-05-07T07:21:19;4.70;;;3.40;;
1877;SDS011;939;51.426;6.972;2023-05-07T07:23:46;2.53;;;2.33;;
1877;SDS011;939;51.426;6.972;2023-05-07T07:26:14;4.40;;;2.80;;
1877;SDS011;939;51.426;6.972;2023-05-07T07:28:42;4.63;;;3.57;;
1877;SDS011;939;51.426;6.972;2023-05-07T07:31:09;3.10;;;2.60;;
1877;SDS011;939;51.426;6.972;2023-05-07T07:33:37;9.03;;;2.67;;
1877;SDS011;939;51.426;6.972;2023-05-07T07:36:05;3.03;;;2.53;;
1877;SDS011;939;51.426;6.972;2023-05-07T07:38:32;1.90;;;1.70;;
1877;SDS011;939;51.426;6.972;2023-05-07T07:41:00;2.57;;;2.30;;
1877;SDS011;939;51.426;6.972;2023-05-07T07:43:28;3.20;;;2.50;;
1877;SDS011;939;51.426;6.972;2023-05-07T07:45:55;2.20;;;2.00;;
1877;SDS011;939;51.426;6.972;2023-05-07T07:48:22;2.40;;;2.07;;
1877;SDS011;939;51.426;6.972;2023-05-07T07:50:49;3.60;;;1.97;;
1877;SDS011;939;51.426;6.972;2023-05-07T07:53:17;2.83;;;1.50;;
1877;SDS011;939;51.426;6.972;2023-05-07T07:55:44;4.03;;;2.17;;
1877;SDS011;939;51.426;6.972;2023-05-07T07:58:11;3.57;;;2.43;;
1877;SDS011;939;51.426;6.972;2023-05-07T08:00:39;2.67;;;2.00;;
1877;SDS011;939;51.426;6.972;2023-05-07T08:18:53;4.30;;;1.97;;
1877;SDS011;939;51.426;6.972;2023-05-07T08:21:28;2.30;;;1.90;;
1877;SDS011;939;51.426;6.972;2023-05-07T08:24:01;2.20;;;2.00;;
1877;SDS011;939;51.426;6.972;2023-05-07T08:26:29;3.60;;;2.20;;
1877;SDS011;939;51.426;6.972;2023-05-07T08:28:56;1.90;;;1.70;;
1877;SDS011;939;51.426;6.972;2023-05-07T08:31:25;2.40;;;2.20;;
1877;SDS011;939;51.426;6.972;2023-05-07T08:33:54;3.17;;;2.40;;
1877;SDS011;939;51.426;6.972;2023-05-07T08:36:21;2.20;;;1.97;;
1877;SDS011;939;51.426;6.972;2023-05-07T08:38:56;3.47;;;2.10;;
1877;SDS011;939;51.426;6.972;2023-05-07T08:41:34;1.97;;;1.70;;
1877;SDS011;939;51.426;6.972;2023-05-07T08:44:17;2.07;;;1.53;;
1877;SDS011;939;51.426;6.972;2023-05-07T08:46:51;3.77;;;2.23;;
1877;SDS011;939;51.426;6.972;2023-05-07T08:49:24;2.40;;;1.33;;
1877;SDS011;939;51.426;6.972;2023-05-07T08:52:05;2.10;;;1.70;;
1877;SDS011;939;51.426;6.972;2023-05-07T08:54:47;2.00;;;1.77;;
1877;SDS011;939;51.426;6.972;2023-05-07T09:00:29;1.60;;;1.40;;
1877;SDS011;939;51.426;6.972;2023-05-07T09:03:27;1.73;;;1.63;;
1877;SDS011;939;51.426;6.972;2023-05-07T09:06:17;2.80;;;1.67;;
1877;SDS011;939;51.426;6.972;2023-05-07T09:08:55;2.00;;;1.57;;
1877;SDS011;939;51.426;6.972;2023-05-07T09:11:25;3.03;;;1.97;;
1877;SDS011;939;51.426;6.972;2023-05-07T09:14:14;1.97;;;1.77;;
1877;SDS011;939;51.426;6.972;2023-05-07T09:16:47;1.70;;;1.60;;
1877;SDS011;939;51.426;6.972;2023-05-07T09:19:15;2.17;;;1.73;;
1877;SDS011;939;51.426;6.972;2023-05-07T09:22:04;2.00;;;1.80;;
1877;SDS011;939;51.426;6.972;2023-05-07T09:24:58;2.17;;;1.73;;
1877;SDS011;939;51.426;6.972;2023-05-07T09:28:00;3.87;;;1.90;;
1877;SDS011;939;51.426;6.972;2023-05-07T09:30:35;3.97;;;1.70;;
1877;SDS011;939;51.426;6.972;2023-05-07T09:33:05;1.70;;;1.47;;
1877;SDS011;939;51.426;6.972;2023-05-07T09:35:47;2.70;;;1.80;;
1877;SDS011;939;51.426;6.972;2023-05-07T10:36:33;2.80;;;2.13;;
1877;SDS011;939;51.426;6.972;2023-05-07T10:50:22;2.13;;;1.73;;
1877;SDS011;939;51.426;6.972;2023-05-07T12:07:32;2.40;;;1.57;;
1877;SDS011;939;51.426;6.972;2023-05-07T12:13:45;4.47;;;2.67;;
1877;SDS011;939;51.426;6.972;2023-05-07T12:16:21;2.70;;;1.93;;
1877;SDS011;939;51.426;6.972;2023-05-07T12:19:42;2.50;;;2.03;;
1877;SDS011;939;51.426;6.972;2023-05-07T12:25:43;4.73;;;2.00;;
1877;SDS011;939;51.426;6.972;2023-05-07T12:31:26;6.87;;;2.50;;
1877;SDS011;939;51.426;6.972;2023-05-07T12:34:35;2.43;;;1.63;;
1877;SDS011;939;51.426;6.972;2023-05-07T12:37:27;2.60;;;2.40;;
1877;SDS011;939;51.426;6.972;2023-05-07T12:43:51;4.50;;;3.10;;
1877;SDS011;939;51.426;6.972;2023-05-07T12:46:25;2.43;;;2.20;;
1877;SDS011;939;51.426;6.972;2023-05-07T12:48:56;3.00;;;2.30;;
1877;SDS011;939;51.426;6.972;2023-05-07T12:51:33;2.43;;;2.23;;
1877;SDS011;939;51.426;6.972;2023-05-07T12:54:27;4.63;;;2.30;;
1877;SDS011;939;51.426;6.972;2023-05-07T12:57:00;5.43;;;2.03;;
1877;SDS011;939;51.426;6.972;2023-05-07T12:59:39;18.43;;;2.40;;
1877;SDS011;939;51.426;6.972;2023-05-07T13:02:13;3.60;;;2.30;;
1877;SDS011;939;51.426;6.972;2023-05-07T13:05:08;2.23;;;1.70;;
1877;SDS011;939;51.426;6.972;2023-05-07T13:07:37;3.40;;;2.00;;
1877;SDS011;939;51.426;6.972;2023-05-07T13:10:27;2.57;;;2.00;;
1877;SDS011;939;51.426;6.972;2023-05-07T13:12:54;2.87;;;2.27;;
1877;SDS011;939;51.426;6.972;2023-05-07T13:15:24;10.53;;;2.90;;
1877;SDS011;939;51.426;6.972;2023-05-07T13:17:54;3.50;;;2.93;;
1877;SDS011;939;51.426;6.972;2023-05-07T13:20:21;2.63;;;2.00;;
1877;SDS011;939;51.426;6.972;2023-05-07T13:22:49;2.23;;;1.93;;
1877;SDS011;939;51.426;6.972;2023-05-07T13:25:16;4.50;;;2.93;;
1877;SDS011;939;51.426;6.972;2023-05-07T13:27:46;2.87;;;2.37;;
1877;SDS011;939;51.426;6.972;2023-05-07T13:30:16;2.07;;;1.83;;
1877;SDS011;939;51.426;6.972;2023-05-07T13:32:43;3.27;;;3.00;;
1877;SDS011;939;51.426;6.972;2023-05-07T13:35:12;3.30;;;2.30;;
1877;SDS011;939;51.426;6.972;2023-05-07T13:37:38;3.13;;;2.70;;
1877;SDS011;939;51.426;6.972;2023-05-07T13:40:06;3.07;;;2.40;;
1877;SDS011;939;51.426;6.972;2023-05-07T13:42:33;4.63;;;3.37;;
1877;SDS011;939;51.426;6.972;2023-05-07T13:45:03;7.40;;;4.10;;
1877;SDS011;939;51.426;6.972;2023-05-07T13:47:31;3.10;;;2.80;;
1877;SDS011;939;51.426;6.972;2023-05-07T13:49:57;2.83;;;2.30;;
1877;SDS011;939;51.426;6.972;2023-05-07T13:52:29;5.83;;;3.83;;
1877;SDS011;939;51.426;6.972;2023-05-07T13:54:56;4.90;;;3.53;;
1877;SDS011;939;51.426;6.972;2023-05-07T13:57:23;4.07;;;3.53;;
1877;SDS011;939;51.426;6.972;2023-05-07T13:59:50;9.63;;;4.50;;
1877;SDS011;939;51.426;6.972;2023-05-07T14:02:30;7.67;;;4.93;;
1877;SDS011;939;51.426;6.972;2023-05-07T16:03:36;8.40;;;5.00;;
1877;SDS011;939;51.426;6.972;2023-05-07T21:30:04;3.90;;;3.07;;
